sensor_id;sensor_type;location;lat;lon;timestamp;pressure;altitude;pressure_sealevel;temperature;humidity
21781;BME280;52576;53.614;9.894;2022-11-20T00:00:33;100739.97;;;1.55;95.72
21781;BME280;52576;53.614;9.894;2022-11-20T00:01:36;100733.75;;;1.56;95.90
21781;BME280;52576;53.614;9.894;2022-11-20T00:02:39;100739.97;;;1.55;95.94
21781;BME280;52576;53.614;9.894;2022-11-20T00:03:43;100733.75;;;1.56;95.96
21781;BME280;52576;53.614;9.894;2022-11-20T00:04:49;100740.66;;;1.57;96.11
21781;BME280;52576;53.614;9.894;2022-11-20T00:05:51;100734.41;;;1.58;96.38
21781;BME280;52576;53.614;9.894;2022-11-20T00:06:54;100741.50;;;1.57;96.28
21781;BME280;52576;53.614;9.894;2022-11-20T00:07:57;100738.72;;;1.59;96.16
21781;BME280;52576;53.614;9.894;2022-11-20T00:09:00;100738.72;;;1.59;96.13
21781;BME280;52576;53.614;9.894;2022-11-20T00:10:05;100736.88;;;1.59;96.06
21781;BME280;52576;53.614;9.894;2022-11-20T00:11:14;100739.53;;;1.59;96.02
21781;BME280;52576;53.614;9.894;2022-11-20T00:12:18;100736.09;;;1.59;96.03
21781;BME280;52576;53.614;9.894;2022-11-20T00:13:20;100737.03;;;1.58;96.14
21781;BME280;52576;53.614;9.894;2022-11-20T00:14:23;100734.41;;;1.58;96.22
21781;BME280;52576;53.614;9.894;2022-11-20T00:15:26;100732.59;;;1.58;96.26
21781;BME280;52576;53.614;9.894;2022-11-20T00:16:31;100725.53;;;1.59;96.40
21781;BME280;52576;53.614;9.894;2022-11-20T00:17:34;100733.44;;;1.59;96.46
21781;BME280;52576;53.614;9.894;2022-11-20T00:18:38;100733.44;;;1.59;96.37
21781;BME280;52576;53.614;9.894;2022-11-20T00:19:42;100729.13;;;1.58;96.37
21781;BME280;52576;53.614;9.894;2022-11-20T00:20:45;100725.53;;;1.59;96.64
21781;BME280;52576;53.614;9.894;2022-11-20T00:21:48;100726.50;;;1.58;96.94
21781;BME280;52576;53.614;9.894;2022-11-20T00:22:53;100731.78;;;1.58;96.88
21781;BME280;52576;53.614;9.894;2022-11-20T00:23:56;100727.63;;;1.55;96.73
21781;BME280;52576;53.614;9.894;2022-11-20T00:25:00;100730.97;;;1.57;96.76
21781;BME280;52576;53.614;9.894;2022-11-20T00:26:03;100738.31;;;1.54;96.93
21781;BME280;52576;53.614;9.894;2022-11-20T00:27:06;100735.53;;;1.55;96.84
21781;BME280;52576;53.614;9.894;2022-11-20T00:28:08;100732.22;;;1.53;96.95
21781;BME280;52576;53.614;9.894;2022-11-20T00:29:12;100732.38;;;1.52;97.49
21781;BME280;52576;53.614;9.894;2022-11-20T00:30:15;100738.47;;;1.52;97.28
21781;BME280;52576;53.614;9.894;2022-11-20T00:31:18;100729.03;;;1.50;97.00
21781;BME280;52576;53.614;9.894;2022-11-20T00:32:21;100730.84;;;1.49;97.32
21781;BME280;52576;53.614;9.894;2022-11-20T00:33:23;100727.41;;;1.49;97.82
21781;BME280;52576;53.614;9.894;2022-11-20T00:34:26;100732.66;;;1.49;97.55
21781;BME280;52576;53.614;9.894;2022-11-20T00:35:30;100730.03;;;1.49;97.89
21781;BME280;52576;53.614;9.894;2022-11-20T00:36:34;100725.72;;;1.48;97.71
21781;BME280;52576;53.614;9.894;2022-11-20T00:37:36;100730.19;;;1.47;97.91
21781;BME280;52576;53.614;9.894;2022-11-20T00:38:39;100736.25;;;1.48;97.70
21781;BME280;52576;53.614;9.894;2022-11-20T00:39:41;100720.59;;;1.46;98.13
21781;BME280;52576;53.614;9.894;2022-11-20T00:40:44;100722.28;;;1.47;97.93
21781;BME280;52576;53.614;9.894;2022-11-20T00:41:53;100731.00;;;1.48;97.93
21781;BME280;52576;53.614;9.894;2022-11-20T00:42:56;100728.19;;;1.49;98.29
21781;BME280;52576;53.614;9.894;2022-11-20T00:43:58;100728.19;;;1.49;98.22
21781;BME280;52576;53.614;9.894;2022-11-20T00:45:01;100729.03;;;1.50;98.45
21781;BME280;52576;53.614;9.894;2022-11-20T00:46:05;100721.28;;;1.48;98.59
21781;BME280;52576;53.614;9.894;2022-11-20T00:47:10;100717.66;;;1.49;98.45
21781;BME280;52576;53.614;9.894;2022-11-20T00:48:12;100717.81;;;1.48;98.77
21781;BME280;52576;53.614;9.894;2022-11-20T00:49:15;100695.56;;;1.33;98.31
21781;BME280;52576;53.614;9.894;2022-11-20T00:50:19;100728.50;;;1.46;98.33
21781;BME280;52576;53.614;9.894;2022-11-20T00:51:25;100724.06;;;1.47;98.60
21781;BME280;52576;53.614;9.894;2022-11-20T00:52:28;100723.22;;;1.46;98.91
21781;BME280;52576;53.614;9.894;2022-11-20T00:53:31;100730.44;;;1.44;98.72
21781;BME280;52576;53.614;9.894;2022-11-20T00:54:56;100725.72;;;1.48;98.92
21781;BME280;52576;53.614;9.894;2022-11-20T00:55:59;100719.50;;;1.49;98.81
21781;BME280;52576;53.614;9.894;2022-11-20T00:57:03;100718.66;;;1.48;98.75
21781;BME280;52576;53.614;9.894;2022-11-20T00:58:06;100716.03;;;1.48;99.13
21781;BME280;52576;53.614;9.894;2022-11-20T00:59:14;100724.75;;;1.49;99.08
21781;BME280;52576;53.614;9.894;2022-11-20T01:00:18;100722.13;;;1.49;99.16
21781;BME280;52576;53.614;9.894;2022-11-20T01:01:21;100717.66;;;1.49;98.95
21781;BME280;52576;53.614;9.894;2022-11-20T01:02:26;100722.13;;;1.49;99.31
21781;BME280;52576;53.614;9.894;2022-11-20T01:03:30;100724.75;;;1.49;99.07
21781;BME280;52576;53.614;9.894;2022-11-20T01:04:34;100717.66;;;1.49;99.27
21781;BME280;52576;53.614;9.894;2022-11-20T01:05:36;100720.19;;;1.51;99.50
21781;BME280;52576;53.614;9.894;2022-11-20T01:06:41;100726.09;;;1.53;99.56
21781;BME280;52576;53.614;9.894;2022-11-20T01:07:43;100717.25;;;1.54;99.35
21781;BME280;52576;53.614;9.894;2022-11-20T01:08:47;100721.53;;;1.55;99.27
21781;BME280;52576;53.614;9.894;2022-11-20T01:09:49;100724.84;;;1.57;99.57
21781;BME280;52576;53.614;9.894;2022-11-20T01:10:52;100715.97;;;1.58;99.43
21781;BME280;52576;53.614;9.894;2022-11-20T01:11:54;100715.97;;;1.58;99.08
21781;BME280;52576;53.614;9.894;2022-11-20T01:12:57;100709.19;;;1.55;99.23
21781;BME280;52576;53.614;9.894;2022-11-20T01:14:17;100715.41;;;1.54;99.26
21781;BME280;52576;53.614;9.894;2022-11-20T01:15:20;100714.75;;;1.52;99.44
21781;BME280;52576;53.614;9.894;2022-11-20T01:16:25;100718.34;;;1.51;99.39
21781;BME280;52576;53.614;9.894;2022-11-20T01:17:30;100714.75;;;1.52;99.71
21781;BME280;52576;53.614;9.894;2022-11-20T01:18:33;100710.44;;;1.51;99.64
21781;BME280;52576;53.614;9.894;2022-11-20T01:19:36;100711.28;;;1.52;99.71
21781;BME280;52576;53.614;9.894;2022-11-20T01:20:39;100715.56;;;1.53;99.66
21781;BME280;52576;53.614;9.894;2022-11-20T01:21:44;100720.44;;;1.48;99.88
21781;BME280;52576;53.614;9.894;2022-11-20T01:22:48;100713.09;;;1.51;99.92
21781;BME280;52576;53.614;9.894;2022-11-20T01:23:51;100717.56;;;1.51;99.70
21781;BME280;52576;53.614;9.894;2022-11-20T01:24:54;100713.22;;;1.50;99.85
21781;BME280;52576;53.614;9.894;2022-11-20T01:25:56;100712.53;;;1.48;99.71
21781;BME280;52576;53.614;9.894;2022-11-20T01:26:59;100710.91;;;1.47;100.00
21781;BME280;52576;53.614;9.894;2022-11-20T01:28:02;100707.44;;;1.46;99.82
21781;BME280;52576;53.614;9.894;2022-11-20T01:29:06;100703.28;;;1.44;100.00
21781;BME280;52576;53.614;9.894;2022-11-20T01:30:11;100708.56;;;1.44;100.00
21781;BME280;52576;53.614;9.894;2022-11-20T01:31:14;100698.97;;;1.43;100.00
21781;BME280;52576;53.614;9.894;2022-11-20T01:32:18;100700.81;;;1.42;100.00
21781;BME280;52576;53.614;9.894;2022-11-20T01:33:20;100696.50;;;1.41;100.00
21781;BME280;52576;53.614;9.894;2022-11-20T01:34:23;100691.22;;;1.41;100.00
21781;BME280;52576;53.614;9.894;2022-11-20T01:35:26;100694.03;;;1.40;100.00
21781;BME280;52576;53.614;9.894;2022-11-20T01:36:31;100695.00;;;1.39;100.00
21781;BME280;52576;53.614;9.894;2022-11-20T01:37:36;100700.28;;;1.39;100.00
21781;BME280;52576;53.614;9.894;2022-11-20T01:38:38;100693.31;;;1.38;100.00
21781;BME280;52576;53.614;9.894;2022-11-20T01:39:42;100682.94;;;1.36;100.00
21781;BME280;52576;53.614;9.894;2022-11-20T01:40:45;100689.19;;;1.35;100.00
21781;BME280;52576;53.614;9.894;2022-11-20T01:41:50;100683.09;;;1.35;100.00
21781;BME280;52576;53.614;9.894;2022-11-20T01:43:14;100678.81;;;1.34;100.00
21781;BME280;52576;53.614;9.894;2022-11-20T01:44:52;100683.38;;;1.32;100.00
21781;BME280;52576;53.614;9.894;2022-11-20T01:45:59;100687.66;;;1.33;100.00
21781;BME280;52576;53.614;9.894;2022-11-20T01:47:04;100685.03;;;1.33;100.00
21781;BME280;52576;53.614;9.894;2022-11-20T01:48:10;100676.31;;;1.32;100.00
21781;BME280;52576;53.614;9.894;2022-11-20T01:49:17;100675.66;;;1.30;100.00
21781;BME280;52576;53.614;9.894;2022-11-20T01:50:24;100677.13;;;1.33;100.00
21781;BME280;52576;53.614;9.894;2022-11-20T01:51:34;100663.97;;;1.33;100.00
21781;BME280;52576;53.614;9.894;2022-11-20T01:52:41;100676.31;;;1.32;100.00
21781;BME280;52576;53.614;9.894;2022-11-20T01:53:45;100676.31;;;1.32;100.00
21781;BME280;52576;53.614;9.894;2022-11-20T01:54:54;100674.50;;;1.33;100.00
21781;BME280;52576;53.614;9.894;2022-11-20T01:56:00;100678.81;;;1.34;100.00
21781;BME280;52576;53.614;9.894;2022-11-20T01:57:06;100669.22;;;1.33;100.00
21781;BME280;52576;53.614;9.894;2022-11-20T01:58:10;100670.06;;;1.33;100.00
21781;BME280;52576;53.614;9.894;2022-11-20T01:59:17;100669.38;;;1.31;100.00
21781;BME280;52576;53.614;9.894;2022-11-20T02:00:21;100672.84;;;1.32;100.00
21781;BME280;52576;53.614;9.894;2022-11-20T02:01:25;100673.69;;;1.32;100.00
21781;BME280;52576;53.614;9.894;2022-11-20T02:02:28;100663.31;;;1.31;100.00
21781;BME280;52576;53.614;9.894;2022-11-20T02:03:31;100665.94;;;1.31;100.00
21781;BME280;52576;53.614;9.894;2022-11-20T02:04:33;100660.78;;;1.29;100.00
21781;BME280;52576;53.614;9.894;2022-11-20T02:05:41;100664.25;;;1.29;100.00
21781;BME280;52576;53.614;9.894;2022-11-20T02:06:48;100660.78;;;1.29;100.00
21781;BME280;52576;53.614;9.894;2022-11-20T02:07:54;100664.41;;;1.28;100.00
21781;BME280;52576;53.614;9.894;2022-11-20T02:08:57;100661.94;;;1.26;100.00
21781;BME280;52576;53.614;9.894;2022-11-20T02:10:01;100664.56;;;1.26;100.00
21781;BME280;52576;53.614;9.894;2022-11-20T02:11:03;100658.47;;;1.26;100.00
21781;BME280;52576;53.614;9.894;2022-11-20T02:12:06;100659.31;;;1.26;100.00
21781;BME280;52576;53.614;9.894;2022-11-20T02:13:29;100649.75;;;1.25;100.00
21781;BME280;52576;53.614;9.894;2022-11-20T02:14:47;100660.28;;;1.25;100.00
21781;BME280;52576;53.614;9.894;2022-11-20T02:15:50;100659.31;;;1.26;100.00
21781;BME280;52576;53.614;9.894;2022-11-20T02:16:52;100653.88;;;1.28;100.00
21781;BME280;52576;53.614;9.894;2022-11-20T02:17:57;100660.94;;;1.27;100.00
21781;BME280;52576;53.614;9.894;2022-11-20T02:19:01;100662.63;;;1.28;100.00
21781;BME280;52576;53.614;9.894;2022-11-20T02:20:06;100664.25;;;1.29;100.00
21781;BME280;52576;53.614;9.894;2022-11-20T02:21:14;100654.72;;;1.28;100.00
21781;BME280;52576;53.614;9.894;2022-11-20T02:22:22;100660.94;;;1.27;100.00
21781;BME280;52576;53.614;9.894;2022-11-20T02:23:32;100648.47;;;1.29;100.00
21781;BME280;52576;53.614;9.894;2022-11-20T02:24:37;100650.13;;;1.31;100.00
21781;BME280;52576;53.614;9.894;2022-11-20T02:25:41;100651.78;;;1.32;100.00
21781;BME280;52576;53.614;9.894;2022-11-20T02:26:48;100644.88;;;1.31;100.00
21781;BME280;52576;53.614;9.894;2022-11-20T02:27:52;100645.69;;;1.31;100.00
21781;BME280;52576;53.614;9.894;2022-11-20T02:28:54;100660.69;;;1.31;100.00
21781;BME280;52576;53.614;9.894;2022-11-20T02:30:00;100638.63;;;1.32;100.00
21781;BME280;52576;53.614;9.894;2022-11-20T02:31:04;100640.41;;;1.31;100.00
21781;BME280;52576;53.614;9.894;2022-11-20T02:32:06;100644.88;;;1.31;100.00
21781;BME280;52576;53.614;9.894;2022-11-20T02:33:09;100648.31;;;1.31;100.00
21781;BME280;52576;53.614;9.894;2022-11-20T02:34:11;100643.03;;;1.31;100.00
21781;BME280;52576;53.614;9.894;2022-11-20T02:35:39;100645.69;;;1.31;100.00
21781;BME280;52576;53.614;9.894;2022-11-20T02:36:42;100658.69;;;1.33;100.00
21781;BME280;52576;53.614;9.894;2022-11-20T02:37:48;100650.25;;;1.29;100.00
21781;BME280;52576;53.614;9.894;2022-11-20T02:38:51;100649.84;;;1.34;100.00
21781;BME280;52576;53.614;9.894;2022-11-20T02:39:55;100655.91;;;1.34;100.00
21781;BME280;52576;53.614;9.894;2022-11-20T02:40:58;100644.56;;;1.34;100.00
21781;BME280;52576;53.614;9.894;2022-11-20T02:42:01;100653.44;;;1.33;100.00
21781;BME280;52576;53.614;9.894;2022-11-20T02:43:04;100656.75;;;1.35;100.00
21781;BME280;52576;53.614;9.894;2022-11-20T02:44:07;100652.47;;;1.34;100.00
21781;BME280;52576;53.614;9.894;2022-11-20T02:45:09;100652.47;;;1.34;100.00
21781;BME280;52576;53.614;9.894;2022-11-20T02:46:13;100639.31;;;1.34;100.00
21781;BME280;52576;53.614;9.894;2022-11-20T02:47:15;100650.66;;;1.34;100.00
21781;BME280;52576;53.614;9.894;2022-11-20T02:48:18;100647.91;;;1.36;100.00
21781;BME280;52576;53.614;9.894;2022-11-20T02:49:21;100645.25;;;1.36;100.00
21781;BME280;52576;53.614;9.894;2022-11-20T02:50:24;100640.00;;;1.36;100.00
21781;BME280;52576;53.614;9.894;2022-11-20T02:51:27;100640.81;;;1.36;100.00
21781;BME280;52576;53.614;9.894;2022-11-20T02:52:30;100635.38;;;1.38;100.00
21781;BME280;52576;53.614;9.894;2022-11-20T02:53:32;100630.94;;;1.38;100.00
21781;BME280;52576;53.614;9.894;2022-11-20T02:54:35;100633.44;;;1.40;100.00
21781;BME280;52576;53.614;9.894;2022-11-20T02:55:39;100629.84;;;1.41;100.00
21781;BME280;52576;53.614;9.894;2022-11-20T02:56:42;100630.50;;;1.43;100.00
21781;BME280;52576;53.614;9.894;2022-11-20T02:57:45;100630.50;;;1.43;100.00
21781;BME280;52576;53.614;9.894;2022-11-20T02:58:48;100624.25;;;1.44;100.00
21781;BME280;52576;53.614;9.894;2022-11-20T02:59:50;100630.22;;;1.46;100.00
21781;BME280;52576;53.614;9.894;2022-11-20T03:00:53;100627.59;;;1.46;100.00
21781;BME280;52576;53.614;9.894;2022-11-20T03:01:57;100627.59;;;1.46;100.00
21781;BME280;52576;53.614;9.894;2022-11-20T03:03:01;100628.53;;;1.45;100.00
21781;BME280;52576;53.614;9.894;2022-11-20T03:04:03;100624.25;;;1.44;100.00
21781;BME280;52576;53.614;9.894;2022-11-20T03:05:07;100627.59;;;1.46;100.00
21781;BME280;52576;53.614;9.894;2022-11-20T03:06:10;100618.84;;;1.45;100.00
21781;BME280;52576;53.614;9.894;2022-11-20T03:07:13;100619.81;;;1.44;100.00
21781;BME280;52576;53.614;9.894;2022-11-20T03:08:15;100620.63;;;1.45;100.00
21781;BME280;52576;53.614;9.894;2022-11-20T03:09:18;100625.06;;;1.44;100.00
21781;BME280;52576;53.614;9.894;2022-11-20T03:10:20;100627.59;;;1.46;100.00
21781;BME280;52576;53.614;9.894;2022-11-20T03:11:25;100628.53;;;1.45;100.00
21781;BME280;52576;53.614;9.894;2022-11-20T03:12:27;100624.25;;;1.44;100.00
21781;BME280;52576;53.614;9.894;2022-11-20T03:13:30;100626.06;;;1.43;100.00
21781;BME280;52576;53.614;9.894;2022-11-20T03:14:32;100628.84;;;1.42;100.00
21781;BME280;52576;53.614;9.894;2022-11-20T03:15:35;100629.84;;;1.41;100.00
21781;BME280;52576;53.614;9.894;2022-11-20T03:16:38;100629.16;;;1.39;100.00
21781;BME280;52576;53.614;9.894;2022-11-20T03:17:41;100629.16;;;1.39;100.00
21781;BME280;52576;53.614;9.894;2022-11-20T03:18:43;100626.53;;;1.39;100.00
21781;BME280;52576;53.614;9.894;2022-11-20T03:19:46;100630.13;;;1.38;100.00
21781;BME280;52576;53.614;9.894;2022-11-20T03:20:48;100614.59;;;1.35;100.00
21781;BME280;52576;53.614;9.894;2022-11-20T03:21:52;100623.50;;;1.34;100.00
21781;BME280;52576;53.614;9.894;2022-11-20T03:22:54;100623.66;;;1.32;100.00
21781;BME280;52576;53.614;9.894;2022-11-20T03:23:57;100626.28;;;1.32;100.00
21781;BME280;52576;53.614;9.894;2022-11-20T03:24:59;100622.81;;;1.32;100.00
21781;BME280;52576;53.614;9.894;2022-11-20T03:26:14;100620.19;;;1.32;100.00
21781;BME280;52576;53.614;9.894;2022-11-20T03:27:18;100623.66;;;1.32;100.00
21781;BME280;52576;53.614;9.894;2022-11-20T03:28:21;100623.66;;;1.32;100.00
21781;BME280;52576;53.614;9.894;2022-11-20T03:29:24;100623.50;;;1.34;100.00
21781;BME280;52576;53.614;9.894;2022-11-20T03:30:27;100623.50;;;1.34;100.00
21781;BME280;52576;53.614;9.894;2022-11-20T03:31:33;100626.13;;;1.34;100.00
21781;BME280;52576;53.614;9.894;2022-11-20T03:32:36;100621.81;;;1.33;100.00
21781;BME280;52576;53.614;9.894;2022-11-20T03:33:39;100627.94;;;1.33;100.00
21781;BME280;52576;53.614;9.894;2022-11-20T03:34:42;100631.56;;;1.32;100.00
21781;BME280;52576;53.614;9.894;2022-11-20T03:35:44;100630.72;;;1.32;100.00
21781;BME280;52576;53.614;9.894;2022-11-20T03:36:47;100619.34;;;1.31;100.00
21781;BME280;52576;53.614;9.894;2022-11-20T03:37:49;100626.44;;;1.31;100.00
21781;BME280;52576;53.614;9.894;2022-11-20T03:38:53;100623.81;;;1.31;100.00
21781;BME280;52576;53.614;9.894;2022-11-20T03:39:55;100619.34;;;1.31;100.00
21781;BME280;52576;53.614;9.894;2022-11-20T03:41:00;100618.53;;;1.31;100.00
21781;BME280;52576;53.614;9.894;2022-11-20T03:42:02;100618.53;;;1.31;100.00
21781;BME280;52576;53.614;9.894;2022-11-20T03:43:27;100620.19;;;1.32;100.00
21781;BME280;52576;53.614;9.894;2022-11-20T03:44:29;100613.28;;;1.31;100.00
21781;BME280;52576;53.614;9.894;2022-11-20T03:45:32;100613.28;;;1.31;100.00
21781;BME280;52576;53.614;9.894;2022-11-20T03:46:34;100615.91;;;1.31;100.00
21781;BME280;52576;53.614;9.894;2022-11-20T03:47:37;100620.47;;;1.28;100.00
21781;BME280;52576;53.614;9.894;2022-11-20T03:48:39;100613.53;;;1.27;100.00
21781;BME280;52576;53.614;9.894;2022-11-20T03:49:42;100616.16;;;1.27;100.00
21781;BME280;52576;53.614;9.894;2022-11-20T03:50:44;100610.09;;;1.27;100.00
21781;BME280;52576;53.614;9.894;2022-11-20T03:51:49;100614.53;;;1.26;100.00
21781;BME280;52576;53.614;9.894;2022-11-20T03:52:51;100611.91;;;1.26;100.00
21781;BME280;52576;53.614;9.894;2022-11-20T03:53:55;100628.69;;;1.25;100.00
21781;BME280;52576;53.614;9.894;2022-11-20T03:54:58;100618.16;;;1.25;100.00
21781;BME280;52576;53.614;9.894;2022-11-20T03:56:01;100604.16;;;1.25;100.00
21781;BME280;52576;53.614;9.894;2022-11-20T03:57:03;100605.94;;;1.24;100.00
21781;BME280;52576;53.614;9.894;2022-11-20T03:58:06;100610.25;;;1.25;100.00
21781;BME280;52576;53.614;9.894;2022-11-20T03:59:11;100618.28;;;1.24;100.00
21781;BME280;52576;53.614;9.894;2022-11-20T04:00:14;100604.97;;;1.25;100.00
21781;BME280;52576;53.614;9.894;2022-11-20T04:01:18;100604.97;;;1.25;100.00
21781;BME280;52576;53.614;9.894;2022-11-20T04:02:22;100601.34;;;1.26;100.00
21781;BME280;52576;53.614;9.894;2022-11-20T04:03:25;100600.53;;;1.26;100.00
21781;BME280;52576;53.614;9.894;2022-11-20T04:04:28;100607.47;;;1.27;100.00
21781;BME280;52576;53.614;9.894;2022-11-20T04:05:30;100601.22;;;1.28;100.00
21781;BME280;52576;53.614;9.894;2022-11-20T04:06:37;100605.63;;;1.27;100.00
21781;BME280;52576;53.614;9.894;2022-11-20T04:07:40;100602.84;;;1.29;100.00
21781;BME280;52576;53.614;9.894;2022-11-20T04:08:42;100602.84;;;1.29;100.00
21781;BME280;52576;53.614;9.894;2022-11-20T04:09:51;100604.38;;;1.32;100.00
21781;BME280;52576;53.614;9.894;2022-11-20T04:10:53;100603.53;;;1.31;100.00
21781;BME280;52576;53.614;9.894;2022-11-20T04:11:56;100606.16;;;1.31;100.00
21781;BME280;52576;53.614;9.894;2022-11-20T04:12:58;100599.09;;;1.32;100.00
21781;BME280;52576;53.614;9.894;2022-11-20T04:14:03;100601.75;;;1.32;100.00
21781;BME280;52576;53.614;9.894;2022-11-20T04:15:08;100600.09;;;1.31;100.00
21781;BME280;52576;53.614;9.894;2022-11-20T04:16:11;100599.25;;;1.30;100.00
21781;BME280;52576;53.614;9.894;2022-11-20T04:17:13;100600.22;;;1.29;100.00
21781;BME280;52576;53.614;9.894;2022-11-20T04:18:17;100602.84;;;1.29;100.00
21781;BME280;52576;53.614;9.894;2022-11-20T04:19:19;100596.78;;;1.28;100.00
21781;BME280;52576;53.614;9.894;2022-11-20T04:20:22;100604.69;;;1.28;100.00
21781;BME280;52576;53.614;9.894;2022-11-20T04:21:25;100603.84;;;1.28;100.00
21781;BME280;52576;53.614;9.894;2022-11-20T04:22:28;100590.81;;;1.26;100.00
21781;BME280;52576;53.614;9.894;2022-11-20T04:23:30;100600.38;;;1.27;100.00
21781;BME280;52576;53.614;9.894;2022-11-20T04:24:33;100592.47;;;1.27;100.00
21781;BME280;52576;53.614;9.894;2022-11-20T04:25:35;100590.69;;;1.28;100.00
21781;BME280;52576;53.614;9.894;2022-11-20T04:26:39;100590.81;;;1.26;100.00
21781;BME280;52576;53.614;9.894;2022-11-20T04:27:41;100589.19;;;1.25;100.00
21781;BME280;52576;53.614;9.894;2022-11-20T04:28:44;100594.44;;;1.25;100.00
21781;BME280;52576;53.614;9.894;2022-11-20T04:29:46;100590.97;;;1.25;100.00
21781;BME280;52576;53.614;9.894;2022-11-20T04:30:51;100583.91;;;1.25;100.00
21781;BME280;52576;53.614;9.894;2022-11-20T04:31:53;100587.34;;;1.26;100.00
21781;BME280;52576;53.614;9.894;2022-11-20T04:32:56;100590.81;;;1.26;100.00
21781;BME280;52576;53.614;9.894;2022-11-20T04:33:59;100581.41;;;1.24;100.00
21781;BME280;52576;53.614;9.894;2022-11-20T04:35:02;100585.56;;;1.26;100.00
21781;BME280;52576;53.614;9.894;2022-11-20T04:36:07;100581.13;;;1.27;100.00
21781;BME280;52576;53.614;9.894;2022-11-20T04:37:12;100588.88;;;1.28;100.00
21781;BME280;52576;53.614;9.894;2022-11-20T04:38:14;100593.31;;;1.28;100.00
21781;BME280;52576;53.614;9.894;2022-11-20T04:39:18;100582.78;;;1.28;100.00
21781;BME280;52576;53.614;9.894;2022-11-20T04:40:20;100585.56;;;1.26;100.00
21781;BME280;52576;53.614;9.894;2022-11-20T04:41:25;100583.91;;;1.25;100.00
21781;BME280;52576;53.614;9.894;2022-11-20T04:42:28;100585.72;;;1.25;100.00
21781;BME280;52576;53.614;9.894;2022-11-20T04:43:31;100585.72;;;1.25;100.00
21781;BME280;52576;53.614;9.894;2022-11-20T04:44:34;100576.00;;;1.25;100.00
21781;BME280;52576;53.614;9.894;2022-11-20T04:45:37;100582.25;;;1.24;100.00
21781;BME280;52576;53.614;9.894;2022-11-20T04:46:41;100578.78;;;1.24;100.00
21781;BME280;52576;53.614;9.894;2022-11-20T04:47:45;100571.69;;;1.24;100.00
21781;BME280;52576;53.614;9.894;2022-11-20T04:48:47;100575.31;;;1.23;100.00
21781;BME280;52576;53.614;9.894;2022-11-20T04:49:50;100570.06;;;1.23;100.00
21781;BME280;52576;53.614;9.894;2022-11-20T04:50:53;100589.75;;;1.19;100.00
21781;BME280;52576;53.614;9.894;2022-11-20T04:51:56;100581.56;;;1.22;100.00
21781;BME280;52576;53.614;9.894;2022-11-20T04:52:58;100577.28;;;1.21;100.00
21781;BME280;52576;53.614;9.894;2022-11-20T04:54:02;100577.28;;;1.21;100.00
21781;BME280;52576;53.614;9.894;2022-11-20T04:55:05;100578.53;;;1.17;100.00
21781;BME280;52576;53.614;9.894;2022-11-20T04:56:10;100578.38;;;1.19;100.00
21781;BME280;52576;53.614;9.894;2022-11-20T04:57:13;100575.75;;;1.19;100.00
21781;BME280;52576;53.614;9.894;2022-11-20T04:58:17;100576.75;;;1.18;100.00
21781;BME280;52576;53.614;9.894;2022-11-20T04:59:19;100578.53;;;1.17;100.00
21781;BME280;52576;53.614;9.894;2022-11-20T05:00:23;100584.78;;;1.16;100.00
21781;BME280;52576;53.614;9.894;2022-11-20T05:01:26;100575.09;;;1.17;100.00
21781;BME280;52576;53.614;9.894;2022-11-20T05:02:30;100575.91;;;1.17;100.00
21781;BME280;52576;53.614;9.894;2022-11-20T05:03:34;100578.69;;;1.16;100.00
21781;BME280;52576;53.614;9.894;2022-11-20T05:04:42;100576.91;;;1.16;100.00
21781;BME280;52576;53.614;9.894;2022-11-20T05:05:45;100578.53;;;1.17;100.00
21781;BME280;52576;53.614;9.894;2022-11-20T05:06:49;100574.94;;;1.18;100.00
21781;BME280;52576;53.614;9.894;2022-11-20T05:07:52;100573.28;;;1.17;100.00
21781;BME280;52576;53.614;9.894;2022-11-20T05:08:54;100569.69;;;1.18;100.00
21781;BME280;52576;53.614;9.894;2022-11-20T05:09:57;100575.63;;;1.20;100.00
21781;BME280;52576;53.614;9.894;2022-11-20T05:11:00;100577.28;;;1.21;100.00
21781;BME280;52576;53.614;9.894;2022-11-20T05:12:03;100572.00;;;1.21;100.00
21781;BME280;52576;53.614;9.894;2022-11-20T05:13:05;100571.03;;;1.22;100.00
21781;BME280;52576;53.614;9.894;2022-11-20T05:14:09;100573.66;;;1.22;100.00
21781;BME280;52576;53.614;9.894;2022-11-20T05:15:11;100574.50;;;1.23;100.00
21781;BME280;52576;53.614;9.894;2022-11-20T05:16:16;100566.59;;;1.23;100.00
21781;BME280;52576;53.614;9.894;2022-11-20T05:17:19;100563.13;;;1.22;100.00
21781;BME280;52576;53.614;9.894;2022-11-20T05:18:23;100563.97;;;1.23;100.00
21781;BME280;52576;53.614;9.894;2022-11-20T05:19:25;100565.75;;;1.22;100.00
21781;BME280;52576;53.614;9.894;2022-11-20T05:20:28;100561.47;;;1.21;100.00
21781;BME280;52576;53.614;9.894;2022-11-20T05:21:30;100559.84;;;1.20;100.00
21781;BME280;52576;53.614;9.894;2022-11-20T05:22:34;100542.44;;;1.10;100.00
21781;BME280;52576;53.614;9.894;2022-11-20T05:23:36;100552.88;;;1.19;100.00
21781;BME280;52576;53.614;9.894;2022-11-20T05:24:39;100555.53;;;1.19;100.00
21781;BME280;52576;53.614;9.894;2022-11-20T05:25:41;100553.03;;;1.18;100.00
21781;BME280;52576;53.614;9.894;2022-11-20T05:26:45;100561.78;;;1.18;100.00
21781;BME280;52576;53.614;9.894;2022-11-20T05:27:47;100559.94;;;1.19;100.00
21781;BME280;52576;53.614;9.894;2022-11-20T05:28:50;100551.25;;;1.18;100.00
21781;BME280;52576;53.614;9.894;2022-11-20T05:29:52;100550.41;;;1.18;100.00
21781;BME280;52576;53.614;9.894;2022-11-20T05:30:56;100557.47;;;1.17;100.00
21781;BME280;52576;53.614;9.894;2022-11-20T05:31:58;100552.19;;;1.17;100.00
21781;BME280;52576;53.614;9.894;2022-11-20T05:33:01;100553.19;;;1.16;100.00
21781;BME280;52576;53.614;9.894;2022-11-20T05:34:04;100551.25;;;1.18;100.00
21781;BME280;52576;53.614;9.894;2022-11-20T05:35:07;100552.06;;;1.19;100.00
21781;BME280;52576;53.614;9.894;2022-11-20T05:36:10;100539.03;;;1.17;100.00